SBI1094 UWGG-UUDD
Flight info
| Callsign | SBI1094 |
|---|---|
| Flight time | 0h 47m |
| Altitude | 30000 |
| Route | LARNO2S LARNO P985 OSPOM T787 URAGO URAGO3M |
| Aircraft | A320/M-SDE3FGHIRWY/LB1 |
Departure
| Time | 2026-05-09 10:34 |
|---|---|
| Airport | Nizhny Novgorod / Strigino International Airport (UWGG) |
Arrival
| Time | 2026-05-09 11:21 |
|---|---|
| Airport | Domodedovo International Airport (UUDD) |
| Time | Latitude | Longitude | Altitude | Speed | Heading |
|---|---|---|---|---|---|
| 2026-05-09 10:11 | 56.22023 | 43.78851 | 266 ft | 0 kts | 101° |
| 2026-05-09 10:28 | 56.22024 | 43.78839 | 266 ft | 2 kts | 101° |
| 2026-05-09 10:28 | 56.22028 | 43.78804 | 266 ft | 3 kts | 101° |
| 2026-05-09 10:28 | 56.22032 | 43.78769 | 266 ft | 3 kts | 105° |
| 2026-05-09 10:28 | 56.22036 | 43.78745 | 266 ft | 3 kts | 175° |
| 2026-05-09 10:29 | 56.22046 | 43.78745 | 266 ft | 2 kts | 191° |
| 2026-05-09 10:29 | 56.22056 | 43.78749 | 266 ft | 0 kts | 191° |
| 2026-05-09 10:31 | 56.22028 | 43.78739 | 266 ft | 5 kts | 191° |
| 2026-05-09 10:31 | 56.21995 | 43.78727 | 266 ft | 5 kts | 191° |
| 2026-05-09 10:31 | 56.21960 | 43.78714 | 266 ft | 5 kts | 192° |
| 2026-05-09 10:31 | 56.21926 | 43.78673 | 266 ft | 6 kts | 231° |
| 2026-05-09 10:32 | 56.21913 | 43.78609 | 266 ft | 5 kts | 265° |
| 2026-05-09 10:32 | 56.21918 | 43.78540 | 266 ft | 6 kts | 280° |
| 2026-05-09 10:32 | 56.21927 | 43.78462 | 267 ft | 6 kts | 281° |
| 2026-05-09 10:32 | 56.21938 | 43.78365 | 267 ft | 8 kts | 282° |
| 2026-05-09 10:33 | 56.21953 | 43.78257 | 266 ft | 9 kts | 297° |
| 2026-05-09 10:33 | 56.22026 | 43.78229 | 267 ft | 13 kts | 11° |
| 2026-05-09 10:33 | 56.22194 | 43.78291 | 266 ft | 57 kts | 12° |
| 2026-05-09 10:33 | 56.22847 | 43.78530 | 267 ft | 130 kts | 11° |
| 2026-05-09 10:34 | 56.23841 | 43.78889 | 761 ft | 151 kts | 11° |
| 2026-05-09 10:34 | 56.26021 | 43.79683 | 2451 ft | 179 kts | 8° |
| 2026-05-09 10:34 | 56.27328 | 43.80159 | 3049 ft | 204 kts | 9° |
| 2026-05-09 10:35 | 56.28804 | 43.80696 | 3658 ft | 228 kts | 9° |
| 2026-05-09 10:35 | 56.30446 | 43.81291 | 4352 ft | 250 kts | 9° |
| 2026-05-09 10:35 | 56.32190 | 43.81928 | 5435 ft | 259 kts | 9° |
| 2026-05-09 10:35 | 56.33986 | 43.82590 | 6519 ft | 267 kts | 9° |
| 2026-05-09 10:36 | 56.35816 | 43.83269 | 7548 ft | 273 kts | 8° |
| 2026-05-09 10:36 | 56.37694 | 43.83985 | 8628 ft | 278 kts | 11° |
| 2026-05-09 10:36 | 56.39464 | 43.85559 | 9643 ft | 292 kts | 37° |
| 2026-05-09 10:36 | 56.40734 | 43.88501 | 10597 ft | 305 kts | 63° |
| 2026-05-09 10:37 | 56.41209 | 43.92322 | 11259 ft | 326 kts | 91° |
| 2026-05-09 10:37 | 56.40852 | 43.96385 | 11979 ft | 337 kts | 102° |
| 2026-05-09 10:37 | 56.40378 | 44.00578 | 12852 ft | 345 kts | 102° |
| 2026-05-09 10:37 | 56.39891 | 44.04873 | 13707 ft | 353 kts | 102° |
| 2026-05-09 10:38 | 56.39240 | 44.09205 | 14478 ft | 359 kts | 115° |
| 2026-05-09 10:38 | 56.37908 | 44.13000 | 15233 ft | 359 kts | 136° |
| 2026-05-09 10:38 | 56.35977 | 44.15799 | 16007 ft | 355 kts | 156° |
| 2026-05-09 10:38 | 56.33668 | 44.17362 | 16319 ft | 365 kts | 175° |
| 2026-05-09 10:39 | 56.31111 | 44.17391 | 16585 ft | 371 kts | 196° |
| 2026-05-09 10:39 | 56.28628 | 44.16096 | 17172 ft | 374 kts | 204° |
| 2026-05-09 10:39 | 56.26125 | 44.14651 | 17897 ft | 379 kts | 203° |
| 2026-05-09 10:39 | 56.23586 | 44.13225 | 18614 ft | 384 kts | 202° |
| 2026-05-09 10:40 | 56.21017 | 44.11808 | 19245 ft | 387 kts | 202° |
| 2026-05-09 10:40 | 56.18433 | 44.10392 | 19873 ft | 390 kts | 202° |
| 2026-05-09 10:40 | 56.15821 | 44.08955 | 20511 ft | 393 kts | 203° |
| 2026-05-09 10:40 | 56.13311 | 44.07076 | 21116 ft | 390 kts | 214° |
| 2026-05-09 10:41 | 56.11081 | 44.04367 | 21722 ft | 386 kts | 225° |
| 2026-05-09 10:41 | 56.09202 | 44.00940 | 22310 ft | 384 kts | 235° |
| 2026-05-09 10:41 | 56.07713 | 43.96977 | 22896 ft | 385 kts | 242° |
| 2026-05-09 10:41 | 56.06313 | 43.92863 | 23482 ft | 388 kts | 242° |
| 2026-05-09 10:42 | 56.04896 | 43.88724 | 24016 ft | 391 kts | 241° |
| 2026-05-09 10:42 | 56.03465 | 43.84562 | 24498 ft | 394 kts | 241° |
| 2026-05-09 10:42 | 56.02037 | 43.80429 | 24968 ft | 397 kts | 241° |
| 2026-05-09 10:42 | 56.00581 | 43.76217 | 25413 ft | 400 kts | 241° |
| 2026-05-09 10:43 | 55.99110 | 43.71971 | 25885 ft | 402 kts | 241° |
| 2026-05-09 10:43 | 55.98134 | 43.69151 | 26190 ft | 404 kts | 241° |
| 2026-05-09 10:43 | 55.96645 | 43.64859 | 26660 ft | 406 kts | 241° |
| 2026-05-09 10:43 | 55.94658 | 43.59144 | 27256 ft | 409 kts | 241° |
| 2026-05-09 10:44 | 55.93641 | 43.56218 | 27553 ft | 411 kts | 241° |
| 2026-05-09 10:44 | 55.92145 | 43.51915 | 27976 ft | 414 kts | 240° |
| 2026-05-09 10:44 | 55.90627 | 43.47552 | 28397 ft | 416 kts | 240° |
| 2026-05-09 10:44 | 55.89092 | 43.43152 | 28779 ft | 419 kts | 240° |
| 2026-05-09 10:45 | 55.87540 | 43.38725 | 29176 ft | 421 kts | 240° |
| 2026-05-09 10:46 | 55.81243 | 43.20885 | 30261 ft | 422 kts | 240° |
| 2026-05-09 10:46 | 55.78838 | 43.11515 | 30261 ft | 415 kts | 256° |
| 2026-05-09 10:47 | 55.77358 | 43.01596 | 30261 ft | 415 kts | 256° |
| 2026-05-09 10:47 | 55.76041 | 42.91622 | 30264 ft | 415 kts | 259° |
| 2026-05-09 10:48 | 55.74972 | 42.81600 | 30267 ft | 415 kts | 260° |
| 2026-05-09 10:48 | 55.73906 | 42.71495 | 30263 ft | 415 kts | 259° |
| 2026-05-09 10:49 | 55.72777 | 42.61443 | 30258 ft | 415 kts | 259° |
| 2026-05-09 10:49 | 55.71611 | 42.51465 | 30256 ft | 415 kts | 258° |
| 2026-05-09 10:50 | 55.70438 | 42.41410 | 30249 ft | 415 kts | 259° |
| 2026-05-09 10:50 | 55.69268 | 42.31365 | 30252 ft | 415 kts | 258° |
| 2026-05-09 10:51 | 55.68086 | 42.21318 | 30246 ft | 415 kts | 258° |
| 2026-05-09 10:51 | 55.66906 | 42.11349 | 30247 ft | 416 kts | 258° |
| 2026-05-09 10:52 | 55.65708 | 42.01314 | 30246 ft | 416 kts | 258° |
| 2026-05-09 10:52 | 55.64501 | 41.91278 | 30245 ft | 416 kts | 258° |
| 2026-05-09 10:53 | 55.63283 | 41.81230 | 30251 ft | 416 kts | 258° |
| 2026-05-09 10:53 | 55.62067 | 41.71262 | 30250 ft | 416 kts | 258° |
| 2026-05-09 10:54 | 55.60834 | 41.61241 | 30248 ft | 416 kts | 258° |
| 2026-05-09 10:54 | 55.59596 | 41.51233 | 30252 ft | 416 kts | 258° |
| 2026-05-09 10:55 | 55.58357 | 41.41217 | 30249 ft | 416 kts | 258° |
| 2026-05-09 10:55 | 55.57101 | 41.31204 | 30252 ft | 416 kts | 258° |
| 2026-05-09 10:56 | 55.55843 | 41.21280 | 30248 ft | 416 kts | 257° |
| 2026-05-09 10:56 | 55.54566 | 41.11286 | 30255 ft | 416 kts | 257° |
| 2026-05-09 10:57 | 55.53283 | 41.01305 | 30251 ft | 416 kts | 257° |
| 2026-05-09 10:57 | 55.52002 | 40.91396 | 30253 ft | 416 kts | 257° |
| 2026-05-09 10:58 | 55.50700 | 40.81425 | 30248 ft | 416 kts | 257° |
| 2026-05-09 10:58 | 55.49399 | 40.71487 | 30255 ft | 416 kts | 257° |
| 2026-05-09 10:59 | 55.48096 | 40.61617 | 30246 ft | 416 kts | 257° |
| 2026-05-09 10:59 | 55.46778 | 40.51686 | 30252 ft | 416 kts | 257° |
| 2026-05-09 11:00 | 55.45451 | 40.41752 | 30244 ft | 416 kts | 257° |
| 2026-05-09 11:00 | 55.44113 | 40.31811 | 30245 ft | 416 kts | 257° |
| 2026-05-09 11:01 | 55.42776 | 40.21964 | 30242 ft | 416 kts | 257° |
| 2026-05-09 11:01 | 55.41419 | 40.12034 | 29886 ft | 416 kts | 257° |
| 2026-05-09 11:01 | 55.40742 | 40.07079 | 29406 ft | 414 kts | 257° |
| 2026-05-09 11:02 | 55.40069 | 40.02171 | 28638 ft | 408 kts | 257° |
| 2026-05-09 11:02 | 55.39401 | 39.97338 | 27885 ft | 404 kts | 257° |
| 2026-05-09 11:02 | 55.38737 | 39.92547 | 27119 ft | 401 kts | 257° |
| 2026-05-09 11:02 | 55.38083 | 39.87852 | 26345 ft | 399 kts | 257° |
| 2026-05-09 11:03 | 55.37423 | 39.83112 | 25588 ft | 397 kts | 257° |
| 2026-05-09 11:03 | 55.36768 | 39.78400 | 24825 ft | 396 kts | 257° |
| 2026-05-09 11:03 | 55.36115 | 39.73710 | 24072 ft | 394 kts | 257° |
| 2026-05-09 11:03 | 55.35459 | 39.69024 | 23241 ft | 393 kts | 257° |
| 2026-05-09 11:04 | 55.34807 | 39.64395 | 22548 ft | 388 kts | 257° |
| 2026-05-09 11:04 | 55.34158 | 39.59806 | 21863 ft | 384 kts | 256° |
| 2026-05-09 11:04 | 55.33513 | 39.55279 | 21195 ft | 380 kts | 256° |
| 2026-05-09 11:04 | 55.32872 | 39.50794 | 20541 ft | 376 kts | 256° |
| 2026-05-09 11:05 | 55.32241 | 39.46390 | 19917 ft | 373 kts | 256° |
| 2026-05-09 11:05 | 55.31612 | 39.41988 | 19308 ft | 369 kts | 256° |
| 2026-05-09 11:05 | 55.30988 | 39.37635 | 18740 ft | 365 kts | 256° |
| 2026-05-09 11:05 | 55.30367 | 39.33317 | 18138 ft | 362 kts | 256° |
| 2026-05-09 11:06 | 55.29762 | 39.29113 | 17593 ft | 356 kts | 256° |
| 2026-05-09 11:06 | 55.29159 | 39.24929 | 17079 ft | 351 kts | 256° |
| 2026-05-09 11:06 | 55.28561 | 39.20796 | 16574 ft | 347 kts | 256° |
| 2026-05-09 11:06 | 55.27966 | 39.16707 | 16066 ft | 344 kts | 256° |
| 2026-05-09 11:07 | 55.27376 | 39.12657 | 15550 ft | 341 kts | 256° |
| 2026-05-09 11:07 | 55.26787 | 39.08633 | 15021 ft | 338 kts | 256° |
| 2026-05-09 11:07 | 55.26203 | 39.04650 | 14483 ft | 336 kts | 256° |
| 2026-05-09 11:07 | 55.25626 | 39.00733 | 13919 ft | 334 kts | 256° |
| 2026-05-09 11:08 | 55.25047 | 38.96803 | 13312 ft | 331 kts | 256° |
| 2026-05-09 11:08 | 55.24470 | 38.92908 | 12716 ft | 329 kts | 256° |
| 2026-05-09 11:08 | 55.23896 | 38.89041 | 12119 ft | 326 kts | 256° |
| 2026-05-09 11:08 | 55.23328 | 38.85215 | 11504 ft | 323 kts | 256° |
| 2026-05-09 11:09 | 55.22768 | 38.81435 | 11149 ft | 314 kts | 256° |
| 2026-05-09 11:09 | 55.22230 | 38.77814 | 11025 ft | 298 kts | 256° |
| 2026-05-09 11:09 | 55.21717 | 38.74382 | 10901 ft | 284 kts | 256° |
| 2026-05-09 11:09 | 55.21226 | 38.71100 | 10783 ft | 272 kts | 256° |
| 2026-05-09 11:10 | 55.20758 | 38.67975 | 10547 ft | 265 kts | 256° |
| 2026-05-09 11:10 | 55.20293 | 38.64878 | 10312 ft | 261 kts | 256° |
| 2026-05-09 11:10 | 55.19832 | 38.61812 | 10133 ft | 260 kts | 256° |
| 2026-05-09 11:10 | 55.19369 | 38.58740 | 10000 ft | 260 kts | 256° |
| 2026-05-09 11:11 | 55.18912 | 38.55716 | 9872 ft | 260 kts | 256° |
| 2026-05-09 11:11 | 55.18450 | 38.52665 | 9739 ft | 259 kts | 256° |
| 2026-05-09 11:11 | 55.17984 | 38.49606 | 9556 ft | 260 kts | 256° |
| 2026-05-09 11:11 | 55.17514 | 38.46527 | 8955 ft | 265 kts | 256° |
| 2026-05-09 11:12 | 55.17041 | 38.43417 | 8584 ft | 261 kts | 256° |
| 2026-05-09 11:12 | 55.16577 | 38.40386 | 8153 ft | 260 kts | 256° |
| 2026-05-09 11:12 | 55.16110 | 38.37327 | 7687 ft | 260 kts | 256° |
| 2026-05-09 11:12 | 55.15642 | 38.34259 | 7235 ft | 259 kts | 256° |
| 2026-05-09 11:13 | 55.15176 | 38.31210 | 6793 ft | 259 kts | 256° |
| 2026-05-09 11:13 | 55.14713 | 38.28208 | 6332 ft | 258 kts | 256° |
| 2026-05-09 11:13 | 55.14243 | 38.25167 | 5876 ft | 259 kts | 256° |
| 2026-05-09 11:13 | 55.13774 | 38.22142 | 5542 ft | 254 kts | 256° |
| 2026-05-09 11:14 | 55.13322 | 38.19216 | 5416 ft | 242 kts | 256° |
| 2026-05-09 11:14 | 55.13184 | 38.16408 | 5278 ft | 231 kts | 278° |
| 2026-05-09 11:14 | 55.13746 | 38.13830 | 5046 ft | 227 kts | 304° |
| 2026-05-09 11:14 | 55.14898 | 38.11974 | 4823 ft | 227 kts | 329° |
| 2026-05-09 11:15 | 55.16410 | 38.11134 | 4637 ft | 230 kts | 347° |
| 2026-05-09 11:15 | 55.17985 | 38.10643 | 4462 ft | 229 kts | 348° |
| 2026-05-09 11:15 | 55.19550 | 38.10150 | 4312 ft | 225 kts | 347° |
| 2026-05-09 11:15 | 55.21042 | 38.09679 | 4206 ft | 217 kts | 347° |
| 2026-05-09 11:16 | 55.22507 | 38.09220 | 4110 ft | 210 kts | 347° |
| 2026-05-09 11:16 | 55.23917 | 38.08730 | 4017 ft | 201 kts | 339° |
| 2026-05-09 11:16 | 55.25125 | 38.07589 | 3842 ft | 197 kts | 324° |
| 2026-05-09 11:16 | 55.26234 | 38.06238 | 3605 ft | 190 kts | 325° |
| 2026-05-09 11:17 | 55.27287 | 38.04967 | 3365 ft | 177 kts | 326° |
| 2026-05-09 11:17 | 55.28262 | 38.03799 | 3168 ft | 165 kts | 327° |
| 2026-05-09 11:17 | 55.29170 | 38.02714 | 3092 ft | 148 kts | 327° |
| 2026-05-09 11:17 | 55.29981 | 38.01745 | 2964 ft | 135 kts | 328° |
| 2026-05-09 11:18 | 55.30744 | 38.00834 | 2815 ft | 130 kts | 329° |
| 2026-05-09 11:18 | 55.31479 | 37.99956 | 2657 ft | 126 kts | 330° |
| 2026-05-09 11:18 | 55.32199 | 37.99096 | 2498 ft | 127 kts | 330° |
| 2026-05-09 11:18 | 55.32933 | 37.98219 | 2323 ft | 128 kts | 330° |
| 2026-05-09 11:19 | 55.33670 | 37.97337 | 2144 ft | 127 kts | 330° |
| 2026-05-09 11:19 | 55.34399 | 37.96465 | 1967 ft | 126 kts | 330° |
| 2026-05-09 11:19 | 55.35126 | 37.95595 | 1789 ft | 125 kts | 330° |
| 2026-05-09 11:19 | 55.35839 | 37.94741 | 1600 ft | 126 kts | 330° |
| 2026-05-09 11:20 | 55.36566 | 37.93870 | 1368 ft | 127 kts | 331° |
| 2026-05-09 11:20 | 55.37306 | 37.92983 | 1156 ft | 130 kts | 331° |
| 2026-05-09 11:20 | 55.38054 | 37.92086 | 954 ft | 130 kts | 330° |
| 2026-05-09 11:20 | 55.38811 | 37.91178 | 760 ft | 132 kts | 328° |
| 2026-05-09 11:21 | 55.39574 | 37.90262 | 582 ft | 133 kts | 329° |
| 2026-05-09 11:21 | 55.40245 | 37.89457 | 565 ft | 99 kts | 325° |
| 2026-05-09 11:21 | 55.40674 | 37.88940 | 576 ft | 48 kts | 326° |
| 2026-05-09 11:21 | 55.40819 | 37.88810 | 576 ft | 4 kts | 340° |
| 2026-05-09 11:22 | 55.40911 | 37.88766 | 575 ft | 18 kts | 350° |
| 2026-05-09 11:22 | 55.41034 | 37.88770 | 576 ft | 12 kts | 37° |
| 2026-05-09 11:22 | 55.41023 | 37.88885 | 581 ft | 13 kts | 142° |
| 2026-05-09 11:22 | 55.40941 | 37.88984 | 576 ft | 16 kts | 146° |
| 2026-05-09 11:23 | 55.40837 | 37.89108 | 579 ft | 19 kts | 144° |
| 2026-05-09 11:23 | 55.40782 | 37.89281 | 571 ft | 18 kts | 94° |
| 2026-05-09 11:23 | 55.40831 | 37.89486 | 571 ft | 17 kts | 54° |
| 2026-05-09 11:23 | 55.40876 | 37.89571 | 573 ft | 8 kts | 50° |
| 2026-05-09 11:24 | 55.40922 | 37.89683 | 573 ft | 14 kts | 56° |
| 2026-05-09 11:24 | 55.40963 | 37.89788 | 574 ft | 17 kts | 56° |
| 2026-05-09 11:24 | 55.41061 | 37.90042 | 568 ft | 21 kts | 55° |
| 2026-05-09 11:24 | 55.41131 | 37.90223 | 571 ft | 12 kts | 56° |
| 2026-05-09 11:25 | 55.41167 | 37.90298 | 574 ft | 13 kts | 33° |
| 2026-05-09 11:25 | 55.41237 | 37.90256 | 570 ft | 10 kts | 324° |
| 2026-05-09 11:25 | 55.41249 | 37.90172 | 572 ft | 6 kts | 246° |
| 2026-05-09 11:25 | 55.41230 | 37.90124 | 574 ft | 0 kts | 233° |